Impacts TAF Board
For situational awareness. Not to be used for flight planning purposes.
IDs:

KTPA - Tampa Intl Arpt, FL, US

Issued at 2335 UTC 21 Sep 2021
Updated at 0003 UTC 22 Sep 2021
Potential Impact None Slight Moderate High
Time2356Z 22/01Z 22/02Z 22/03Z 22/04Z 22/05Z 22/06Z 22/07Z 22/08Z 22/09Z 22/10Z 22/11Z 22/12Z 22/13Z>>
Type OBS PRVL PRVL PRVL PRVL PRVL PRVL PRVL PRVL PRVL PRVL PRVL PRVL PRVL
VIS 7 >6 >6 >6 >6 >6 >6 >6 >6 >6 >6 >6 >6 >6
CIG 100 50 50 250 250 250 250 250 250 250 250 250 250 250
Cover OVC BKN BKN BKN BKN BKN BKN BKN BKN BKN BKN BKN BKN BKN
FltCat VFR VFR VFR VFR VFR VFR VFR VFR VFR VFR VFR VFR VFR VFR
WX -RA VCSH VCSH -- -- -- -- -- -- -- -- -- -- --
WDir VRB 80 80 VRB VRB VRB VRB VRB VRB VRB VRB VRB VRB VRB
WSpd 0 5 5 3 3 3 3 3 3 3 3 3 3 3
WGst -- -- -- -- -- -- -- -- -- -- -- -- -- --
Raw TAF
KTPA 212335Z 2200/2306 VRB10KT P6SM VCTS SCT030CB BKN050
  FM220100 08005KT P6SM VCSH SCT030 BKN050
  FM220300 VRB03KT P6SM FEW020 SCT120 BKN250
  FM221500 22005KT P6SM VCTS SCT025CB SCT120 BKN250
  FM221800 25007KT P6SM VCTS SCT030CB BKN050


Raw METAR
KTPA 212356Z 00000KT 7SM -RA SCT030CB OVC100 26/23 A3003 RMK AO2 TSE54 CB W-NE MOV W P0001 T02560233 $
KTPA 212353Z 00000KT 5SM -TSRA BR FEW008 SCT032CB OVC095 26/24 A3003 RMK AO2 LTG DSNT SE TSB24 SLP167 OCNL LTGIC ALQDS TS ALQDS MOV W P0006 60115 T02560239 10328 20250 50017 $
KTPA 212324Z 14007KT 8SM -TSRA FEW008 BKN032CB OVC095 26/24 A3002 RMK AO2 LTG DSNT NE-S TSB24 CB ALQDS MOV W P0002 T02560239 $
KTPA 212320Z 15004KT 7SM VCTS -RA FEW011 SCT032CB OVC040 26/24 A3002 RMK AO2 LTG DSNT NE AND SE CB ALQDS MOV W P0002 T02560239 $
KTPA 212253Z 14007KT 2SM VCTS RA BR BKN016 BKN032CB OVC050 25/23 A3003 RMK AO2 PK WND 13028/2156 LTG DSNT N-SE RAB14 SLP168 CB ALQDS MOV W P0109 T02500233 $
KTPA 212226Z 13013G21KT 1SM +TSRA SCT010 BKN022 BKN030CB 26/23 A3001 RMK AO2 PK WND 13028/2156 LTG DSNT NE-SE RAB14 OCNL LTGIC N-S TS N-S MOV W P0008 T02560228 RVRNO $
KTPA 212221Z 12013G20KT 6SM -TSRA SCT010 BKN022 BKN030CB 27/23 A3001 RMK AO2 PK WND 13028/2156 LTG DSNT NE-SE RAB14 OCNL LTGIC N-S TS N-S MOV W P0000 T02670233 $
KTPA 212153Z VRB06KT 10SM TS FEW025 SCT031CB BKN080 BKN250 31/24 A3000 RMK AO2 LTG DSNT NE-SE TSB53 PRESRR SLP158 OCNL LTGIC N-S TS N-S MOV NW VCSH NE-SE T03110239

METAR Board
Radar Display
Forecast Discussion
For situational awareness. Not to be used for flight planning purposes.